• Join FlightAware (Why Join?)
  • Login
  • US Flag 
11:54AM EDT


 

Airport Tracker/Info


-or-


 

Live Flight TrackerFlight Track Log ✈ SWA1718 ✈ 19-Apr-2013 ✈ KDAL - KAMA

Flight Track Log - Related Links

Times and Time Zones

All times are in EDT time to prevent confusion due to time zone crossing. See the SWA1718 flight status page for this flight to view local times or setup timezone preferences in your user account.

Time Position Orientation Groundspeed Altitude Reporting Facility
EDT Latitude Longitude Course Direction KTS MPH feet Rate Location/Type
03:25PM 32.8833 -96.9000 301° West 195 224 2,500  Level Dallas / Fort Worth TRACON
03:26PM 32.9333 -96.9500 320° Northwest 218 251 5,700 3,420 Climbing Dallas / Fort Worth TRACON
03:27PM 32.9667 -97.0000 308° West 247 284 9,400 2,700 Climbing Dallas / Fort Worth TRACON
03:28PM 33.0167 -97.0667 312° West 281 323 11,100 2,100 Climbing Dallas / Fort Worth TRACON
03:29PM 33.0667 -97.1500 306° West 342 394 13,400 2,940 Climbing Dallas / Fort Worth TRACON
03:29PM 33.0692 -97.2350 272° West 349 402 16,100 2,820 Climbing Fort Worth Center
03:30PM 33.1133 -97.3765 301° West  Level FlightAware Approximate
03:30PM 33.0733 -97.3392 273° West 349 402 18,500  Level Fort Worth Center
03:31PM 33.0797 -97.4681 273° West 349 402 20,900 1,980 Climbing Fort Worth Center
03:32PM 33.0836 -97.5769 272° West 354 407 22,500 1,800 Climbing Fort Worth Center
03:33PM 33.0919 -97.7183 274° West 378 435 24,500 1,860 Climbing Fort Worth Center
03:34PM 33.1250 -97.8400 288° West 384 442 26,300 1,800 Climbing Fort Worth Center
03:35PM 33.1642 -97.9644 291° West 394 453 28,200 1,860 Climbing Fort Worth Center
03:36PM 33.2136 -98.0764 298° West 394 453 30,100 1,680 Climbing Fort Worth Center
03:37PM 33.2756 -98.1811 305° West 388 447 31,600 1,680 Climbing Fort Worth Center
03:38PM 33.3333 -98.2811 305° West 381 438 33,500 1,500 Climbing Fort Worth Center
03:39PM 33.3850 -98.3711 305° West 375 432 34,600 1,200 Climbing Fort Worth Center
03:40PM 33.4467 -98.4764 305° West 375 432 36,000 660 Climbing Fort Worth Center
03:41PM 33.5083 -98.5794 306° West 370 426 36,000  Level Fort Worth Center
03:42PM 33.5597 -98.6747 303° West 380 437 36,000  Level Fort Worth Center
03:43PM 33.6211 -98.7756 306° West 385 443 36,000  Level Fort Worth Center
03:44PM 33.6764 -98.8761 303° West 374 430 36,000  Level Fort Worth Center
03:45PM 33.7397 -98.9872 304° West 369 425 36,000  Level Fort Worth Center
03:46PM 33.7989 -99.0881 305° West 375 432 36,000  Level Fort Worth Center
03:47PM 33.8539 -99.1842 305° West 363 418 36,000  Level Fort Worth Center
03:48PM 33.9108 -99.2881 303° West 363 418 36,000  Level Fort Worth Center
03:49PM 33.9678 -99.3919 303° West 368 423 36,000 -3,540 Level Fort Worth Center
03:50PM 34.0244 -99.4958 303° West 373 429 29,000  Descending Fort Worth Center
03:51PM 34.0833 -99.6003 304° West 380 437 36,000 3,480 Climbing Fort Worth Center
03:52PM 34.1397 -99.7044 303° West 380 437 36,000  Level Fort Worth Center
03:53PM 34.1964 -99.8039 305° West 375 432 36,000  Level Fort Worth Center
03:54PM 34.2528 -99.9086 303° West 375 432 36,000  Level Fort Worth Center
03:55PM 34.3069 -100.0081 303° West 375 432 36,000  Level Fort Worth Center
03:56PM 34.3675 -100.1131 305° West 375 432 36,000 -900 Level Fort Worth Center
03:57PM 34.4189 -100.2136 302° West 373 429 34,200 -2,220 Descending Albuquerque Center
03:58PM 34.4772 -100.3206 304° West 379 436 31,400 -2,100 Descending Albuquerque Center
03:59PM 34.5353 -100.4278 303° West 380 437 29,900 -2,100 Descending Albuquerque Center
04:01PM 34.5972 -100.5403 304° West 394 453 27,100 -3,000 Descending Albuquerque Center
04:02PM 34.6694 -100.6756 303° West 400 460 23,700 -2,880 Descending Albuquerque Center
04:03PM 34.7264 -100.7817 303° West 383 441 21,200 -2,460 Descending Albuquerque Center
04:04PM 34.7797 -100.8819 303° West 360 414 18,700 -2,280 Descending Albuquerque Center
04:05PM 34.8300 -100.9772 303° West 344 396 16,500 -2,220 Descending Albuquerque Center
04:06PM 34.8858 -101.0628 309° West 326 375 14,200 -2,160 Descending Albuquerque Center
04:07PM 34.9594 -101.1519 315° West 315 362 12,100 -1,740 Descending Albuquerque Center
04:08PM 35.0000 -101.2283 303° West 291 335 10,700 -1,080 Descending Albuquerque Center
04:09PM 35.0094 -101.3186 277° West 276 318 9,900 -720 Descending Albuquerque Center
04:10PM 35.0194 -101.3956 279° West 254 292 9,300 -1,200 Descending Albuquerque Center
04:11PM 35.0581 -101.4600 306° West 242 278 7,500 -1,440 Descending Albuquerque Center
04:12PM 35.1003 -101.5219 310° West 239 275 6,400 -1,140 Descending Albuquerque Center
04:13PM 35.1383 -101.5803 309° West 230 265 5,200 -840 Descending Albuquerque Center
04:14PM 35.1772 -101.6386 309° West 190 219 4,700 -660 Descending Albuquerque Center
04:15PM 35.2072 -101.6719 318° Northwest 159 183 3,900 -780 Descending Albuquerque Center
04:17PM 35.2167 -101.7000 219° Southwest  Level FlightAware Approximate